This is the latest recevied weather packets stored in our database for station/object K0PFX-8. If no packets are shown the sender has not sent any weather packets the latest 10 day(s).
| Time | Temp. | Humidity | Pressure | Rain* | Wind** | Luminosity | Snow |
|---|---|---|---|---|---|---|---|
| 1777736163 | 13.89° C | 46% | 1021.5 hPa | 0 mm | 2.68 m/s, 8° | - | - |
| 1777735264 | 13.89° C | 51% | 1021.5 hPa | 0 mm | 2.68 m/s, 87° | - | - |
| 1777734363 | 13.89° C | 56% | 1021.3 hPa | 0 mm | 1.79 m/s, 308° | - | - |
| 1777732564 | 12.78° C | 63% | 1021.1 hPa | 0 mm | 1.79 m/s, 359° | - | - |
| 1777731666 | 12.22° C | 67% | 1021 hPa | 0 mm | 1.79 m/s, 56° | - | - |
| 1777730765 | 12.22° C | 66% | 1021.1 hPa | 0 mm | 2.24 m/s, 359° | - | - |
| 1777729867 | 12.22° C | 73% | 1020.9 hPa | 0 mm | 0.45 m/s, 312° | - | - |
| 1777728965 | 11.67° C | 74% | 1020.8 hPa | 0 mm | 1.79 m/s, 41° | - | - |
| 1777728067 | 11.67° C | 77% | 1020.7 hPa | 0 mm | 0 m/s | - | - |
| 1777727166 | 11.11° C | 78% | 1020.7 hPa | 0 mm | 0.45 m/s, 359° | - | - |
| 1777726267 | 10.56° C | 81% | 1020.6 hPa | 0 mm | 0 m/s | - | - |
| 1777725366 | 10.56° C | 82% | 1020.4 hPa | 0 mm | 2.24 m/s, 0° | - | - |
| 1777724468 | 9.44° C | 85% | 1020.4 hPa | 0 mm | 2.24 m/s, 21° | - | - |
| 1777723566 | 8.89° C | 86% | 1020.1 hPa | 0 mm | 2.24 m/s, 11° | - | - |
| 1777722668 | 8.89° C | 85% | 1019.9 hPa | 0 mm | 2.24 m/s, 346° | - | - |
| 1777721767 | 8.33° C | 86% | 1019.7 hPa | 0 mm | 0 m/s | - | - |
| 1777720869 | 8.89° C | 87% | 1019.5 hPa | 0 mm | 0 m/s | - | - |
| 1777719968 | 8.89° C | 87% | 1019.4 hPa | 0 mm | 0 m/s | - | - |
| 1777719070 | 8.89° C | 86% | 1019.3 hPa | 0 mm | 0 m/s | - | - |
| 1777718169 | 8.89° C | 83% | 1019.2 hPa | 0 mm | 0 m/s | - | - |
| 1777716370 | 9.44° C | 82% | 1019.1 hPa | 0 mm | 0 m/s | - | - |
| 1777715472 | 9.44° C | 80% | 1018.9 hPa | 0 mm | 0 m/s | - | - |
| 1777714571 | 9.44° C | 79% | 1018.9 hPa | 0 mm | 0.45 m/s, 305° | - | - |
| 1777713673 | 9.44° C | 81% | 1018.9 hPa | 0 mm | 0 m/s | - | - |
| 1777712771 | 10° C | 77% | 1018.6 hPa | 0 mm | 0 m/s | - | - |
* Rain latest hour (hover to see other rain measurements)
** Current wind speed in m/s (hover to see current wind gust speed)